This is the latest recevied weather packets stored in our database for station/object PA3DZX-13. If no packets are shown the sender has not sent any weather packets the latest 10 day(s).
| Time | Temp. | Humidity | Pressure | Rain* | Wind** | Luminosity | Snow |
|---|---|---|---|---|---|---|---|
| 1788184330 | 16.67° C | 68% | 1009.9 hPa | 0 mm | - | - | - |
| 1788183430 | 17.78° C | 63% | 1009.6 hPa | 0.25 mm | - | - | - |
| 1788182529 | 20° C | 53% | 1009 hPa | 0 mm | - | - | - |
| 1788181629 | 20.56° C | 52% | 1008.8 hPa | 0 mm | - | - | - |
| 1788180728 | 21.67° C | 50% | 1008.6 hPa | 0 mm | - | - | - |
| 1788179828 | 20° C | 59% | 1008.8 hPa | 0 mm | - | - | - |
| 1788178928 | 18.89° C | 65% | 1008.8 hPa | 0 mm | - | - | - |
| 1788178027 | 18.89° C | 65% | 1008.7 hPa | 0 mm | - | - | - |
| 1788177127 | 20° C | 61% | 1008.7 hPa | 0 mm | - | - | - |
| 1788176227 | 20° C | 61% | 1008.6 hPa | 0 mm | - | - | - |
| 1788175326 | 20° C | 62% | 1008.3 hPa | 0 mm | - | - | - |
| 1788174426 | 20° C | 62% | 1008.4 hPa | 0 mm | - | - | - |
| 1788173524 | 20.56° C | 61% | 1008.5 hPa | 0 mm | - | - | - |
| 1788172625 | 18.89° C | 67% | 1008.7 hPa | 0 mm | - | - | - |
| 1788171724 | 18.89° C | 67% | 1008.8 hPa | 0 mm | - | - | - |
| 1788170825 | 20° C | 68% | 1008.9 hPa | 0 mm | - | - | - |
| 1788169923 | 18.89° C | 70% | 1009 hPa | 0 mm | - | - | - |
| 1788169024 | 18.89° C | 71% | 1008.9 hPa | 0 mm | - | - | - |
| 1788168120 | 17.78° C | 72% | 1009 hPa | 0 mm | - | - | - |
| 1788167220 | 17.78° C | 73% | 1009 hPa | 0 mm | - | - | - |
| 1788166319 | 17.78° C | 72% | 1009 hPa | 0 mm | - | - | - |
| 1788165419 | 17.78° C | 73% | 1009.1 hPa | 0 mm | - | - | - |
| 1788164519 | 17.78° C | 74% | 1008.9 hPa | 0 mm | - | - | - |
| 1788163619 | 17.78° C | 75% | 1008.9 hPa | 0 mm | - | - | - |
| 1788162718 | 17.78° C | 76% | 1009.1 hPa | 0 mm | - | - | - |
* Rain latest hour (hover to see other rain measurements)
** Current wind speed in m/s (hover to see current wind gust speed)